Terminal Aerodrome Forecast
Issued by NWS

Home | Current Version | Previous Version | Text Only | Print | Product List | Glossary On
Versions: 1 2 3 4 5 6 7 8 9 10 11 12 13 14 15 16 17 18 19 20 21 22 23 24 25
000
FTUS42 KFFC 291734
TAFPDK
TAF
KPDK 291734Z 2918/3018 13006KT P6SM VCSH BKN040
     FM300200 12003KT P6SM FEW040 SCT120
     FM301100 13003KT 5SM BR FEW005
     FM301300 13003KT 6SM BR FEW010
     FM301500 14005KT P6SM BKN040=

USA.gov is the U.S. government's official web portal to all federal, state and local government web resources and services.